createdAt,value
2023-01-29T00:00:16.214Z,18.38
2023-01-29T00:02:44.908Z,17.95
2023-01-29T00:05:26.940Z,19.58
2023-01-29T00:07:58.627Z,19.45
2023-01-29T00:10:27.380Z,20.08
2023-01-29T00:12:58.106Z,20.42
2023-01-29T00:15:26.348Z,21.05
2023-01-29T00:17:54.679Z,19.85
2023-01-29T00:20:22.880Z,18.88
2023-01-29T00:22:50.917Z,18.52
2023-01-29T00:25:20.311Z,17.88
2023-01-29T00:27:48.659Z,17.60
2023-01-29T00:30:20.527Z,17.45
2023-01-29T00:32:51.131Z,21.23
2023-01-29T00:35:19.427Z,22.02
2023-01-29T00:37:47.497Z,18.85
2023-01-29T00:40:16.056Z,18.48
2023-01-29T00:43:04.252Z,17.95
2023-01-29T00:45:32.524Z,20.60
2023-01-29T00:48:00.730Z,17.27
2023-01-29T00:50:28.894Z,17.92
2023-01-29T00:52:57.122Z,16.02
2023-01-29T00:55:25.377Z,17.33
2023-01-29T00:57:54.974Z,15.45
2023-01-29T01:00:24.922Z,14.25
2023-01-29T01:03:07.012Z,15.38
2023-01-29T01:05:37.004Z,16.48
2023-01-29T01:08:25.418Z,17.30
2023-01-29T01:10:59.782Z,13.95
2023-01-29T01:13:29.439Z,14.68
2023-01-29T01:15:57.571Z,15.00
2023-01-29T01:18:25.684Z,14.30
2023-01-29T01:20:59.624Z,12.77
2023-01-29T01:23:28.000Z,14.48
2023-01-29T01:25:56.061Z,14.73
2023-01-29T01:28:24.208Z,16.35
2023-01-29T01:30:53.808Z,15.60
2023-01-29T01:33:22.014Z,15.93
2023-01-29T01:35:50.099Z,16.92
2023-01-29T01:38:18.064Z,17.02
2023-01-29T01:40:47.448Z,18.08
2023-01-29T01:43:15.417Z,15.65
2023-01-29T01:45:46.622Z,17.15
2023-01-29T01:48:20.504Z,18.05
2023-01-29T01:50:51.755Z,17.88
2023-01-29T01:53:23.889Z,18.08
2023-01-29T01:55:55.539Z,18.73
2023-01-29T01:58:28.008Z,15.93
2023-01-29T02:03:44.993Z,17.88
2023-01-29T02:06:30.712Z,18.17
2023-01-29T02:09:20.567Z,18.08
2023-01-29T02:11:48.787Z,20.98
2023-01-29T02:14:18.849Z,22.70
2023-01-29T02:16:46.941Z,19.88
2023-01-29T02:19:37.413Z,18.42
2023-01-29T02:22:28.167Z,17.30
2023-01-29T02:25:23.257Z,16.85
2023-01-29T02:28:17.120Z,16.88
2023-01-29T02:30:51.750Z,17.17
2023-01-29T02:33:27.559Z,18.13
2023-01-29T02:36:02.359Z,18.70
2023-01-29T02:38:36.916Z,16.92
2023-01-29T02:41:09.915Z,16.60
2023-01-29T02:43:46.358Z,19.08
2023-01-29T02:46:20.454Z,18.10
2023-01-29T02:48:56.458Z,17.45
2023-01-29T02:51:31.864Z,17.95
2023-01-29T02:54:04.109Z,18.38
2023-01-29T02:56:38.499Z,18.85
2023-01-29T02:59:12.915Z,17.95
2023-01-29T03:01:47.139Z,16.92
2023-01-29T03:04:20.733Z,17.02
2023-01-29T03:06:54.512Z,18.23
2023-01-29T03:09:31.009Z,17.98
2023-01-29T03:12:19.859Z,18.27
2023-01-29T03:15:09.709Z,15.68
2023-01-29T03:17:42.227Z,17.65
2023-01-29T03:20:16.638Z,18.75
2023-01-29T03:22:50.498Z,18.00
2023-01-29T03:25:38.367Z,20.15
2023-01-29T03:28:25.342Z,18.75
2023-01-29T03:31:14.250Z,16.42
2023-01-29T03:33:46.971Z,16.77
2023-01-29T03:36:19.909Z,16.98
2023-01-29T03:38:47.891Z,18.45
2023-01-29T03:41:24.513Z,18.00
2023-01-29T03:44:01.396Z,18.27
2023-01-29T03:46:33.347Z,17.65
2023-01-29T03:49:08.420Z,17.98
2023-01-29T03:51:45.862Z,16.38
2023-01-29T03:54:21.265Z,18.38
2023-01-29T03:56:58.529Z,18.98
2023-01-29T03:59:36.583Z,17.13
2023-01-29T04:02:09.720Z,18.08
2023-01-29T04:04:40.096Z,17.80
2023-01-29T04:07:12.656Z,18.77
2023-01-29T04:09:46.585Z,18.23
2023-01-29T04:12:18.719Z,18.85
2023-01-29T04:14:47.999Z,19.95
2023-01-29T04:17:20.820Z,17.50
2023-01-29T04:19:49.647Z,17.85
2023-01-29T04:22:24.054Z,18.55
2023-01-29T04:24:52.787Z,17.90
2023-01-29T04:27:28.311Z,17.67
2023-01-29T04:30:09.944Z,18.15
2023-01-29T04:32:52.662Z,18.98
2023-01-29T04:35:30.257Z,16.42
2023-01-29T04:38:08.143Z,18.08
2023-01-29T04:40:44.698Z,18.00
2023-01-29T04:43:17.453Z,17.60
2023-01-29T04:45:56.458Z,19.05
2023-01-29T04:48:31.244Z,17.25
2023-01-29T04:51:08.467Z,21.08
2023-01-29T04:53:45.396Z,19.40
2023-01-29T04:56:19.984Z,18.60
2023-01-29T04:58:52.917Z,19.23
2023-01-29T05:01:25.840Z,19.92
2023-01-29T05:03:56.971Z,20.33
2023-01-29T05:06:25.744Z,20.40
2023-01-29T05:08:55.250Z,19.73
2023-01-29T05:11:25.300Z,19.08
2023-01-29T05:13:53.318Z,19.00
2023-01-29T05:16:26.740Z,21.02
2023-01-29T05:18:56.559Z,19.33
2023-01-29T05:21:25.507Z,18.50
2023-01-29T05:24:11.226Z,20.15
2023-01-29T05:26:56.890Z,19.27
2023-01-29T05:29:24.942Z,19.13
2023-01-29T05:31:53.000Z,17.67
2023-01-29T05:34:22.601Z,19.88
2023-01-29T05:36:50.633Z,20.65
2023-01-29T05:39:18.705Z,17.70
2023-01-29T05:41:46.697Z,18.08
2023-01-29T05:44:14.887Z,20.45
2023-01-29T05:46:43.854Z,19.73
2023-01-29T05:49:12.076Z,20.55
2023-01-29T05:51:41.714Z,24.25
2023-01-29T05:54:11.978Z,17.45
2023-01-29T05:56:40.203Z,18.70
2023-01-29T05:59:08.328Z,18.17
2023-01-29T06:01:36.343Z,18.15
2023-01-29T06:04:04.365Z,17.90
2023-01-29T06:06:32.615Z,16.50
2023-01-29T06:09:02.150Z,16.70
2023-01-29T06:11:30.231Z,18.45
2023-01-29T06:13:58.296Z,18.10
2023-01-29T06:16:26.442Z,20.10
2023-01-29T06:18:54.364Z,18.70
2023-01-29T06:21:22.494Z,18.15
2023-01-29T06:23:50.458Z,18.17
2023-01-29T06:26:19.798Z,18.50
2023-01-29T06:28:50.979Z,17.35
2023-01-29T06:31:36.689Z,18.02
2023-01-29T06:34:05.651Z,18.52
2023-01-29T06:36:33.703Z,20.35
2023-01-29T06:39:01.757Z,20.38
2023-01-29T06:41:31.295Z,18.88
2023-01-29T06:43:59.524Z,19.27
2023-01-29T06:46:27.642Z,19.88
2023-01-29T06:48:55.639Z,20.30
2023-01-29T06:51:23.590Z,18.35
2023-01-29T06:53:51.940Z,17.60
2023-01-29T06:56:20.049Z,18.63
2023-01-29T06:58:49.703Z,18.75
2023-01-29T07:01:34.554Z,19.17
2023-01-29T07:04:04.054Z,22.90
2023-01-29T07:06:32.794Z,18.23
2023-01-29T07:09:00.988Z,14.73
2023-01-29T07:11:28.997Z,18.00
2023-01-29T07:13:58.453Z,17.67
2023-01-29T07:16:27.053Z,17.45
2023-01-29T07:18:55.022Z,18.58
2023-01-29T07:21:23.153Z,17.85
2023-01-29T07:23:51.234Z,17.77
2023-01-29T07:26:19.268Z,16.42
2023-01-29T07:28:47.291Z,17.60
2023-01-29T07:31:17.045Z,17.48
2023-01-29T07:33:45.548Z,13.13
2023-01-29T07:36:16.037Z,12.65
2023-01-29T07:38:44.089Z,16.63
2023-01-29T07:41:13.616Z,16.38
2023-01-29T07:43:41.689Z,15.80
2023-01-29T07:46:09.943Z,15.82
2023-01-29T07:48:39.465Z,16.42
2023-01-29T07:51:07.743Z,14.85
2023-01-29T07:53:37.089Z,16.23
2023-01-29T07:56:05.424Z,11.52
2023-01-29T07:58:35.640Z,15.10
2023-01-29T08:01:07.713Z,16.63
2023-01-29T08:03:35.914Z,15.50
2023-01-29T08:06:06.303Z,14.93
2023-01-29T08:08:34.468Z,16.00
2023-01-29T08:11:24.751Z,9.70
2023-01-29T08:13:52.887Z,14.65
2023-01-29T08:16:21.031Z,12.98
2023-01-29T08:18:49.037Z,13.32
2023-01-29T08:21:18.527Z,13.43
2023-01-29T08:23:46.522Z,12.82
2023-01-29T08:26:14.541Z,13.25
2023-01-29T08:28:44.901Z,12.68
2023-01-29T08:31:16.576Z,12.15
2023-01-29T08:33:44.588Z,14.32
2023-01-29T08:36:12.594Z,12.90
2023-01-29T08:38:42.072Z,13.57
2023-01-29T08:41:10.237Z,12.73
2023-01-29T08:43:38.651Z,12.68
2023-01-29T08:46:07.887Z,12.63
2023-01-29T08:48:36.342Z,12.18
2023-01-29T08:51:04.676Z,11.57
2023-01-29T08:53:33.204Z,11.85
2023-01-29T08:56:02.842Z,11.48
2023-01-29T08:58:30.927Z,11.70
2023-01-29T09:01:06.504Z,11.55
2023-01-29T09:03:34.564Z,11.73
2023-01-29T09:06:02.662Z,12.38
2023-01-29T09:08:30.672Z,8.68
2023-01-29T09:11:00.114Z,9.52
2023-01-29T09:13:29.372Z,8.90
2023-01-29T09:16:01.013Z,9.50
2023-01-29T09:18:29.161Z,8.80
2023-01-29T09:20:57.565Z,10.10
2023-01-29T09:23:25.969Z,10.10
2023-01-29T09:25:53.897Z,10.00
2023-01-29T09:28:21.904Z,9.35
2023-01-29T09:30:51.416Z,8.25
2023-01-29T09:33:19.666Z,8.05
2023-01-29T09:35:48.014Z,8.82
2023-01-29T09:38:16.098Z,9.65
2023-01-29T09:40:54.627Z,10.40
2023-01-29T09:43:27.155Z,9.30
2023-01-29T09:48:30.379Z,10.63
2023-01-29T09:51:00.909Z,8.17
2023-01-29T09:53:33.382Z,8.48
2023-01-29T09:58:34.742Z,12.18
2023-01-29T10:01:13.916Z,8.13
2023-01-29T10:03:56.441Z,8.23
2023-01-29T10:06:37.421Z,9.95
2023-01-29T10:09:32.535Z,8.65
2023-01-29T10:12:13.330Z,8.77
2023-01-29T10:14:49.328Z,7.60
2023-01-29T10:17:45.530Z,8.98
2023-01-29T10:20:29.435Z,9.25
2023-01-29T10:23:08.087Z,8.05
2023-01-29T10:25:40.693Z,7.72
2023-01-29T10:28:17.844Z,8.27
2023-01-29T10:30:50.153Z,8.05
2023-01-29T10:33:26.509Z,9.00
2023-01-29T10:35:59.072Z,10.90
2023-01-29T10:38:41.133Z,10.60
2023-01-29T10:41:29.972Z,9.73
2023-01-29T10:44:13.177Z,9.82
2023-01-29T10:46:59.933Z,8.48
2023-01-29T10:49:54.417Z,9.30
2023-01-29T10:52:35.757Z,9.98
2023-01-29T10:55:16.418Z,8.98
2023-01-29T10:58:02.762Z,11.25
2023-01-29T11:00:37.075Z,9.70
2023-01-29T11:03:26.345Z,9.43
2023-01-29T11:06:05.313Z,12.32
2023-01-29T11:08:39.485Z,10.50
2023-01-29T11:11:09.732Z,10.70
2023-01-29T11:13:43.885Z,10.25
2023-01-29T11:16:12.505Z,10.50
2023-01-29T11:18:57.849Z,11.43
2023-01-29T11:21:29.002Z,9.55
2023-01-29T11:24:08.535Z,9.48
2023-01-29T11:26:40.221Z,11.70
2023-01-29T11:29:34.822Z,11.02
2023-01-29T11:32:06.801Z,10.32
2023-01-29T11:34:35.082Z,10.88
2023-01-29T11:37:06.000Z,11.93
2023-01-29T11:39:34.169Z,10.07
2023-01-29T11:42:03.796Z,9.73
2023-01-29T11:44:34.662Z,10.80
2023-01-29T11:47:14.127Z,11.55
2023-01-29T11:50:03.773Z,10.93
2023-01-29T11:52:53.178Z,9.13
2023-01-29T11:55:24.046Z,10.18
2023-01-29T11:57:54.241Z,10.25
2023-01-29T12:00:24.925Z,10.35
2023-01-29T12:02:57.728Z,11.30
2023-01-29T12:05:28.940Z,11.23
2023-01-29T12:08:02.619Z,9.85
2023-01-29T12:10:36.461Z,10.80
2023-01-29T12:13:20.077Z,12.48
2023-01-29T12:15:50.914Z,12.23
2023-01-29T12:18:31.113Z,9.40
2023-01-29T12:21:03.687Z,9.90
2023-01-29T12:26:11.456Z,8.43
2023-01-29T12:28:46.126Z,9.60
2023-01-29T12:31:25.566Z,9.77
2023-01-29T12:33:59.667Z,10.30
2023-01-29T12:36:33.518Z,9.73
2023-01-29T12:39:04.640Z,9.60
2023-01-29T12:41:41.754Z,10.27
2023-01-29T12:44:17.491Z,10.88
2023-01-29T12:46:50.926Z,10.00
2023-01-29T12:49:24.002Z,11.10
2023-01-29T12:51:57.019Z,10.43
2023-01-29T12:54:34.696Z,9.18
2023-01-29T12:57:09.681Z,7.22
2023-01-29T12:59:44.296Z,9.75
2023-01-29T13:02:25.239Z,10.02
2023-01-29T13:05:00.626Z,10.88
2023-01-29T13:07:34.250Z,10.52
2023-01-29T13:10:09.934Z,10.43
2023-01-29T13:12:41.017Z,11.10
2023-01-29T13:15:22.329Z,10.55
2023-01-29T13:17:54.700Z,9.85
2023-01-29T13:20:29.793Z,10.80
2023-01-29T13:23:04.616Z,10.18
2023-01-29T13:25:34.481Z,10.48
2023-01-29T13:28:02.642Z,10.63
2023-01-29T13:30:32.625Z,10.48
2023-01-29T13:33:10.379Z,9.68
2023-01-29T13:35:42.471Z,7.13
2023-01-29T13:38:25.970Z,9.25
2023-01-29T13:40:58.221Z,9.88
2023-01-29T13:43:26.485Z,10.85
2023-01-29T13:45:55.863Z,11.07
2023-01-29T13:48:28.305Z,10.93
2023-01-29T13:50:58.147Z,10.98
2023-01-29T13:53:30.205Z,9.05
2023-01-29T13:56:29.825Z,9.35
2023-01-29T13:58:58.938Z,9.13
2023-01-29T14:02:12.132Z,10.50
2023-01-29T14:04:40.178Z,8.55
2023-01-29T14:07:40.109Z,10.82
2023-01-29T14:10:17.582Z,9.18
2023-01-29T14:12:47.728Z,10.23
2023-01-29T14:15:31.662Z,8.48
2023-01-29T14:18:24.875Z,9.07
2023-01-29T14:20:57.295Z,9.77
2023-01-29T14:23:40.301Z,9.48
2023-01-29T14:26:29.813Z,10.18
2023-01-29T14:29:08.710Z,9.55
2023-01-29T14:31:45.904Z,9.95
2023-01-29T14:34:24.649Z,11.48
2023-01-29T14:36:56.341Z,8.82
2023-01-29T14:39:36.701Z,8.50
2023-01-29T14:42:17.589Z,9.20
2023-01-29T14:45:12.340Z,10.35
2023-01-29T14:48:05.588Z,10.70
2023-01-29T14:50:53.063Z,11.15
2023-01-29T14:53:30.699Z,10.98
2023-01-29T14:56:02.686Z,11.90
2023-01-29T14:58:40.023Z,10.10
2023-01-29T15:01:18.173Z,10.82
2023-01-29T15:03:49.964Z,8.68
2023-01-29T15:06:29.739Z,10.98
2023-01-29T15:09:06.409Z,8.65
2023-01-29T15:11:41.575Z,10.70
2023-01-29T15:14:27.110Z,10.68
2023-01-29T15:17:07.057Z,10.35
2023-01-29T15:19:37.724Z,10.30
2023-01-29T15:22:08.615Z,18.58
2023-01-29T15:24:37.009Z,12.73
2023-01-29T15:27:07.473Z,12.90
2023-01-29T15:29:36.993Z,15.65
2023-01-29T15:32:05.391Z,13.20
2023-01-29T15:34:33.728Z,13.25
2023-01-29T15:37:02.590Z,15.57
2023-01-29T15:39:31.879Z,10.75
2023-01-29T15:42:13.878Z,15.32
2023-01-29T15:44:47.404Z,14.25
2023-01-29T15:47:16.474Z,15.30
2023-01-29T15:49:49.071Z,10.30
2023-01-29T15:54:47.636Z,14.77
2023-01-29T15:57:24.649Z,13.80
2023-01-29T15:59:55.715Z,14.50
2023-01-29T16:02:36.237Z,14.05
2023-01-29T16:05:05.840Z,14.68
2023-01-29T16:07:34.809Z,12.00
2023-01-29T16:10:03.380Z,14.13
2023-01-29T16:12:33.945Z,13.40
2023-01-29T16:15:06.076Z,11.02
2023-01-29T16:17:37.656Z,14.65
2023-01-29T16:20:08.082Z,14.63
2023-01-29T16:22:38.279Z,14.15
2023-01-29T16:25:08.675Z,13.55
2023-01-29T16:27:37.105Z,14.55
2023-01-29T16:30:07.793Z,13.40
2023-01-29T16:32:36.516Z,14.05
2023-01-29T16:35:04.981Z,15.75
2023-01-29T16:37:36.257Z,14.73
2023-01-29T16:40:16.567Z,15.90
2023-01-29T16:42:44.573Z,15.23
2023-01-29T16:45:29.698Z,12.10
2023-01-29T16:48:02.821Z,15.25
2023-01-29T16:50:46.391Z,15.82
2023-01-29T16:53:24.692Z,13.85
2023-01-29T16:55:54.301Z,14.98
2023-01-29T16:58:25.834Z,15.25
2023-01-29T17:01:00.294Z,13.83
2023-01-29T17:03:31.419Z,14.63
2023-01-29T17:05:59.927Z,15.05
2023-01-29T17:08:32.590Z,13.82
2023-01-29T17:11:01.490Z,14.60
2023-01-29T17:13:36.213Z,13.95
2023-01-29T17:16:16.616Z,14.70
2023-01-29T17:18:44.875Z,15.60
2023-01-29T17:21:12.998Z,14.70
2023-01-29T17:23:41.329Z,15.95
2023-01-29T17:26:13.267Z,15.75
2023-01-29T17:28:42.272Z,47.97
2023-01-29T17:31:12.228Z,34.22
2023-01-29T17:33:43.066Z,16.55
2023-01-29T17:36:13.656Z,17.58
2023-01-29T17:38:41.964Z,15.63
2023-01-29T17:41:15.227Z,15.00
2023-01-29T17:43:44.250Z,16.42
2023-01-29T17:46:16.271Z,15.80
2023-01-29T17:48:45.380Z,15.95
2023-01-29T17:51:15.812Z,16.30
2023-01-29T17:53:46.291Z,17.73
2023-01-29T17:56:17.083Z,16.52
2023-01-29T17:58:45.509Z,17.92
2023-01-29T18:01:14.882Z,17.90
2023-01-29T18:03:43.006Z,16.85
2023-01-29T18:06:12.846Z,17.88
2023-01-29T18:08:41.270Z,16.65
2023-01-29T18:11:13.531Z,16.35
2023-01-29T18:13:42.026Z,15.70
2023-01-29T18:16:10.450Z,15.40
2023-01-29T18:18:40.508Z,15.77
2023-01-29T18:21:08.947Z,15.25
2023-01-29T18:23:37.147Z,16.27
2023-01-29T18:26:06.785Z,15.32
2023-01-29T18:28:34.826Z,14.30
2023-01-29T18:31:03.084Z,15.10
2023-01-29T18:33:31.207Z,15.73
2023-01-29T18:36:00.803Z,16.15
2023-01-29T18:38:28.881Z,14.98
2023-01-29T18:41:04.448Z,15.00
2023-01-29T18:43:32.420Z,15.13
2023-01-29T18:46:00.666Z,15.38
2023-01-29T18:48:29.315Z,15.52
2023-01-29T18:50:57.399Z,16.60
2023-01-29T18:53:26.883Z,14.32
2023-01-29T18:55:59.910Z,14.10
2023-01-29T18:58:35.991Z,15.63
2023-01-29T19:01:08.846Z,16.52
2023-01-29T19:06:07.029Z,17.38
2023-01-29T19:08:36.635Z,16.17
2023-01-29T19:11:08.133Z,17.90
2023-01-29T19:13:37.901Z,42.67
2023-01-29T19:16:09.041Z,22.85
2023-01-29T19:18:37.119Z,16.63
2023-01-29T19:21:08.888Z,17.42
2023-01-29T19:23:38.492Z,16.83
2023-01-29T19:26:07.072Z,16.08
2023-01-29T19:28:35.128Z,17.20
2023-01-29T19:31:03.385Z,19.00
2023-01-29T19:33:31.530Z,18.92
2023-01-29T19:35:59.981Z,19.02
2023-01-29T19:38:29.020Z,17.45
2023-01-29T19:41:00.929Z,20.33
2023-01-29T19:43:31.449Z,19.75
2023-01-29T19:46:00.420Z,18.85
2023-01-29T19:48:29.281Z,18.77
2023-01-29T19:51:01.716Z,16.27
2023-01-29T19:53:30.616Z,19.83
2023-01-29T19:56:01.761Z,16.77
2023-01-29T19:58:31.052Z,18.05
2023-01-29T20:01:00.828Z,17.20
2023-01-29T20:03:30.034Z,16.95
2023-01-29T20:06:02.248Z,16.05
2023-01-29T20:08:30.824Z,17.77
2023-01-29T20:11:00.366Z,18.45
2023-01-29T20:13:28.510Z,17.88
2023-01-29T20:15:56.855Z,17.02
2023-01-29T20:18:25.144Z,16.70
2023-01-29T20:20:53.611Z,17.02
2023-01-29T20:23:36.565Z,17.58
2023-01-29T20:26:07.633Z,16.83
2023-01-29T20:28:36.264Z,17.42
2023-01-29T20:31:04.522Z,18.05
2023-01-29T20:33:33.599Z,18.40
2023-01-29T20:36:03.580Z,18.75
2023-01-29T20:38:32.215Z,18.02
2023-01-29T20:41:04.892Z,15.40
2023-01-29T20:43:34.721Z,17.67
2023-01-29T20:46:03.962Z,14.68
2023-01-29T20:48:34.143Z,17.42
2023-01-29T20:51:08.000Z,15.30
2023-01-29T20:53:36.196Z,17.83
2023-01-29T20:56:05.230Z,17.15
2023-01-29T20:58:34.925Z,18.40
2023-01-29T21:01:03.190Z,17.98
2023-01-29T21:03:31.292Z,14.20
2023-01-29T21:06:00.113Z,16.90
2023-01-29T21:08:28.365Z,17.80
2023-01-29T21:10:56.463Z,16.42
2023-01-29T21:13:24.601Z,17.35
2023-01-29T21:15:54.042Z,18.67
2023-01-29T21:18:22.746Z,16.67
2023-01-29T21:20:51.354Z,17.60
2023-01-29T21:23:19.610Z,15.35
2023-01-29T21:25:48.104Z,16.33
2023-01-29T21:28:16.731Z,18.85
2023-01-29T21:30:45.038Z,18.38
2023-01-29T21:33:14.465Z,18.60
2023-01-29T21:35:42.608Z,16.77
2023-01-29T21:38:10.656Z,18.92
2023-01-29T21:40:38.850Z,19.38
2023-01-29T21:43:12.589Z,18.33
2023-01-29T21:46:02.444Z,17.25
2023-01-29T21:48:32.305Z,18.15
2023-01-29T21:51:00.367Z,15.77
2023-01-29T21:53:28.443Z,19.10
2023-01-29T21:56:00.953Z,18.60
2023-01-29T21:58:29.135Z,18.65
2023-01-29T22:00:57.435Z,18.50
2023-01-29T22:03:47.558Z,19.23
2023-01-29T22:06:15.993Z,19.77
2023-01-29T22:08:44.053Z,19.80
2023-01-29T22:11:12.087Z,17.40
2023-01-29T22:13:40.316Z,18.02
2023-01-29T22:16:09.027Z,18.20
2023-01-29T22:18:37.216Z,19.80
2023-01-29T22:21:07.086Z,19.55
2023-01-29T22:23:35.065Z,20.42
2023-01-29T22:26:08.896Z,20.42
2023-01-29T22:28:37.054Z,19.80
2023-01-29T22:31:06.174Z,19.42
2023-01-29T22:33:34.560Z,21.35
2023-01-29T22:36:03.370Z,19.52
2023-01-29T22:38:32.671Z,19.20
2023-01-29T22:41:01.775Z,19.13
2023-01-29T22:43:30.164Z,20.30
2023-01-29T22:45:58.195Z,19.23
2023-01-29T22:48:26.911Z,21.00
2023-01-29T22:51:09.323Z,19.60
2023-01-29T22:53:40.059Z,20.33
2023-01-29T22:56:09.232Z,21.77
2023-01-29T22:58:37.306Z,19.55
2023-01-29T23:01:05.809Z,19.55
2023-01-29T23:03:34.110Z,19.58
2023-01-29T23:06:02.342Z,18.25
2023-01-29T23:08:30.471Z,17.63
2023-01-29T23:11:13.890Z,18.73
2023-01-29T23:13:43.245Z,18.98
2023-01-29T23:16:11.702Z,19.00
2023-01-29T23:18:40.019Z,18.45
2023-01-29T23:21:08.251Z,18.65
2023-01-29T23:23:38.074Z,17.35
2023-01-29T23:26:26.198Z,17.48
2023-01-29T23:28:54.342Z,14.45
2023-01-29T23:31:22.449Z,16.73
2023-01-29T23:33:50.763Z,17.73
2023-01-29T23:36:18.972Z,20.60
2023-01-29T23:38:47.088Z,19.10
2023-01-29T23:41:16.486Z,18.80
2023-01-29T23:43:44.586Z,18.58
2023-01-29T23:46:12.733Z,21.17
2023-01-29T23:48:40.870Z,19.20
2023-01-29T23:51:08.996Z,20.08
2023-01-29T23:53:36.999Z,18.17
2023-01-29T23:56:06.275Z,20.30
2023-01-29T23:58:36.082Z,19.83
